Time;durP1;ratioP1;P1;durP2;ratioP2;P2;SDS_P1;SDS_P2;PMS_P1;PMS_P2;Temp;Humidity;BMP_temperature;BMP_pressure;BME280_temperature;BME280_humidity;BME280_pressure;Samples;Min_cycle;Max_cycle;Signal;HPM_P1;HPM_P2
2022/09/11 00:00:51;;;;;;;3.50;1.00;;;13.90;99.90;;;;;;6231703;23;19996;-84
2022/09/11 00:03:23;;;;;;;1.52;0.70;;;13.90;99.90;;;;;;6228336;23;20005;-82
2022/09/11 00:05:49;;;;;;;1.25;0.68;;;13.80;99.90;;;;;;6203606;23;20004;-82
2022/09/11 00:08:17;;;;;;;2.70;0.70;;;13.80;99.90;;;;;;6203620;23;20049;-83
2022/09/11 00:10:44;;;;;;;2.05;0.57;;;13.80;99.90;;;;;;6230163;22;19997;-83
2022/09/11 00:13:13;;;;;;;1.85;0.77;;;13.80;99.90;;;;;;6231123;23;20071;-84
2022/09/11 00:15:44;;;;;;;1.80;0.70;;;13.80;99.90;;;;;;6233939;22;20012;-82
2022/09/11 00:18:12;;;;;;;0.95;0.50;;;13.80;99.90;;;;;;6206932;23;20005;-81
2022/09/11 00:20:38;;;;;;;2.97;0.65;;;13.80;99.90;;;;;;6236556;23;20012;-83
2022/09/11 00:23:05;;;;;;;0.77;0.70;;;13.80;99.90;;;;;;6239795;23;19992;-83
2022/09/11 00:25:39;;;;;;;1.58;0.80;;;13.80;99.90;;;;;;6211920;23;20016;-84
2022/09/11 00:28:06;;;;;;;1.92;1.05;;;13.80;99.90;;;;;;6238950;23;20016;-82
2022/09/11 00:30:32;;;;;;;1.10;0.60;;;13.80;99.90;;;;;;6213970;23;20395;-83
2022/09/11 00:32:58;;;;;;;1.85;1.23;;;13.80;99.90;;;;;;6240900;22;20058;-83
2022/09/11 00:35:24;;;;;;;3.13;0.70;;;13.80;99.90;;;;;;6212957;23;20009;-81
2022/09/11 00:37:50;;;;;;;1.83;0.70;;;13.80;99.90;;;;;;6213342;23;20059;-81
2022/09/11 00:40:16;;;;;;;3.30;0.60;;;13.80;99.90;;;;;;6237605;22;20012;-84
2022/09/11 00:42:42;;;;;;;1.77;0.80;;;13.80;99.90;;;;;;6203370;23;20000;-84
2022/09/11 00:45:24;;;;;;;5.60;1.00;;;13.80;99.90;;;;;;6230792;23;20447;-83
2022/09/11 00:47:51;;;;;;;1.80;0.80;;;13.80;99.90;;;;;;6203828;23;20099;-84
2022/09/11 00:50:20;;;;;;;1.77;0.80;;;13.80;99.90;;;;;;6235478;23;20001;-82
2022/09/11 00:53:00;;;;;;;1.13;0.63;;;13.80;99.90;;;;;;6214962;23;20023;-80
2022/09/11 01:04:29;;;;;;;;;;;;;;;;;;;;;
2022/09/11 01:08:02;;;;;;;0.65;0.55;;;13.90;99.90;;;;;;6034127;23;20003;-86
2022/09/11 01:15:15;;;;;;;;;;;;;;;;;;;;;
2022/09/11 01:18:26;;;;;;;2.40;0.60;;;13.90;99.90;;;;;;5922849;24;20021;-86
2022/09/11 01:22:08;;;;;;;;;;;;;;;;;;;;;
2022/09/11 01:25:14;;;;;;;2.15;0.82;;;13.80;99.90;;;;;;5922360;24;20102;-87
2022/09/11 01:33:59;;;;;;;1.83;0.63;;;13.80;99.90;;;;;;6181624;23;20006;-86
2022/09/11 01:44:30;;;;;;;1.35;0.70;;;13.90;99.90;;;;;;6055650;23;20058;-86
2022/09/11 02:07:07;;;;;;;0.65;0.65;;;14.00;99.90;;;;;;5914531;24;20021;-87
2022/09/11 02:17:38;;;;;;;4.07;0.80;;;14.10;99.90;;;;;;5799337;24;20093;-87
2022/09/11 02:20:44;;;;;;;2.35;0.60;;;14.10;99.90;;;;;;5776268;24;20314;-86
2022/09/11 02:23:33;;;;;;;2.35;0.60;;;14.20;99.90;;;;;;5833485;24;20045;-87
2022/09/11 02:27:05;;;;;;;;;;;;;;;;;;;;;
2022/09/11 02:29:59;;;;;;;1.75;0.60;;;14.10;99.90;;;;;;5671567;25;20099;-87
2022/09/11 02:33:05;;;;;;;1.50;0.60;;;14.10;99.90;;;;;;5722234;25;20009;-86
2022/09/11 02:35:52;;;;;;;3.13;0.77;;;14.10;99.90;;;;;;5774928;24;20083;-86
2022/09/11 02:42:41;;;;;;;;;;;;;;;;;;;;;
2022/09/11 02:52:54;;;;;;;0.93;0.70;;;14.20;99.90;;;;;;6210177;23;20016;-87
2022/09/11 03:02:40;;;;;;;1.27;0.90;;;14.20;99.90;;;;;;6094456;23;20102;-87
2022/09/11 03:06:13;;;;;;;;;;;;;;;;;;;;;
2022/09/11 03:14:23;;;;;;;;;;;;;;;;;;;;;
2022/09/11 03:21:38;;;;;;;;;;;;;;;;;;;;;
2022/09/11 03:25:08;;;;;;;0.73;0.60;;;14.00;99.90;;;;;;6068212;23;20029;-87
2022/09/11 03:34:41;;;;;;;2.55;0.80;;;14.00;99.90;;;;;;6001487;23;19999;-87
2022/09/11 03:37:41;;;;;;;1.85;0.60;;;14.00;99.90;;;;;;6074841;23;20122;-87
2022/09/11 03:46:38;;;;;;;2.15;0.77;;;14.10;99.90;;;;;;6028497;23;20059;-86
2022/09/11 03:50:07;;;;;;;1.35;0.70;;;14.10;99.90;;;;;;6054103;23;19998;-86
2022/09/11 03:53:11;;;;;;;0.90;0.50;;;14.10;99.90;;;;;;5989770;23;20518;-86
2022/09/11 03:56:05;;;;;;;2.05;0.75;;;14.00;99.90;;;;;;6009670;23;20020;-86
2022/09/11 03:58:49;;;;;;;3.03;0.60;;;14.00;99.90;;;;;;6103914;23;20434;-86
2022/09/11 04:01:33;;;;;;;2.67;0.65;;;13.90;99.90;;;;;;6074935;23;20066;-86
2022/09/11 04:11:07;;;;;;;1.80;0.80;;;13.80;99.90;;;;;;6097619;23;20125;-86
2022/09/11 04:13:58;;;;;;;0.95;0.52;;;13.70;99.90;;;;;;6227636;22;19996;-86
2022/09/11 04:19:51;;;;;;;1.63;0.95;;;13.70;99.90;;;;;;6241006;22;20107;-86
2022/09/11 04:22:17;;;;;;;2.05;0.77;;;13.70;99.90;;;;;;6240620;22;20064;-86
2022/09/11 04:24:42;;;;;;;0.52;0.50;;;13.80;99.90;;;;;;6213963;22;19992;-87
2022/09/11 04:31:02;;;;;;;;;;;;;;;;;;;;;
2022/09/11 04:33:38;;;;;;;2.22;0.60;;;13.90;99.90;;;;;;6237133;22;20027;-85
2022/09/11 04:36:18;;;;;;;0.82;0.60;;;13.90;99.90;;;;;;6210920;23;20016;-85
2022/09/11 04:38:45;;;;;;;1.52;0.65;;;13.90;99.90;;;;;;6237711;23;20036;-84
2022/09/11 04:41:12;;;;;;;4.70;1.13;;;13.80;99.90;;;;;;6211834;23;19992;-84
2022/09/11 04:43:39;;;;;;;0.57;0.50;;;13.80;99.90;;;;;;6211529;22;19993;-85
2022/09/11 04:46:13;;;;;;;3.45;0.93;;;13.80;99.90;;;;;;6240378;22;20020;-85
2022/09/11 04:48:47;;;;;;;2.15;0.65;;;13.80;99.90;;;;;;6240936;22;20161;-86
2022/09/11 04:51:23;;;;;;;1.13;0.63;;;13.80;99.90;;;;;;6227921;22;20005;-84
2022/09/11 04:53:50;;;;;;;1.73;0.65;;;13.80;99.90;;;;;;6196184;23;20008;-85
2022/09/11 04:56:17;;;;;;;3.40;1.10;;;13.80;99.90;;;;;;6233264;23;20001;-85
2022/09/11 04:58:45;;;;;;;2.55;0.70;;;13.70;99.90;;;;;;6189885;23;20008;-84
2022/09/11 05:01:15;;;;;;;3.25;0.90;;;13.70;99.90;;;;;;6189843;23;20036;-84
2022/09/11 05:03:44;;;;;;;2.08;0.60;;;13.80;99.90;;;;;;6188645;23;20001;-84
2022/09/11 05:06:11;;;;;;;3.72;0.82;;;13.80;99.90;;;;;;6190646;23;20008;-84
2022/09/11 05:08:37;;;;;;;3.05;0.68;;;13.80;99.90;;;;;;6194202;23;20103;-85
2022/09/11 05:11:06;;;;;;;2.92;0.98;;;13.80;99.90;;;;;;6224705;23;20098;-84
2022/09/11 05:13:33;;;;;;;3.30;0.80;;;13.90;99.90;;;;;;6229251;22;20035;-84
2022/09/11 05:16:13;;;;;;;0.70;0.70;;;13.90;99.90;;;;;;6217629;23;20004;-85
2022/09/11 05:18:41;;;;;;;4.82;0.88;;;13.90;99.90;;;;;;6192808;23;20001;-83
2022/09/11 05:21:16;;;;;;;3.13;0.90;;;13.90;99.90;;;;;;6218319;23;20072;-85
2022/09/11 05:23:46;;;;;;;1.92;0.90;;;13.90;99.90;;;;;;6228369;23;20028;-84
2022/09/11 05:26:17;;;;;;;1.55;0.77;;;14.00;99.90;;;;;;6218160;23;20164;-84
2022/09/11 05:28:44;;;;;;;1.38;0.50;;;14.00;99.90;;;;;;6218780;23;20008;-84
2022/09/11 05:31:17;;;;;;;0.65;0.65;;;14.10;99.90;;;;;;6192847;23;20005;-83
2022/09/11 05:33:44;;;;;;;3.50;0.75;;;14.10;99.90;;;;;;6226978;23;20064;-84
2022/09/11 05:36:12;;;;;;;1.92;0.75;;;14.10;99.90;;;;;;6226362;22;20164;-84
2022/09/11 05:38:51;;;;;;;3.05;0.75;;;14.10;99.90;;;;;;6193218;23;20085;-84
2022/09/11 05:41:20;;;;;;;1.65;0.73;;;14.10;99.90;;;;;;6182233;23;20484;-85
2022/09/11 05:43:45;;;;;;;4.05;1.00;;;14.10;99.90;;;;;;6169155;23;20024;-85
2022/09/11 05:46:14;;;;;;;1.20;0.80;;;14.10;99.90;;;;;;6219761;23;20007;-85
2022/09/11 05:48:41;;;;;;;2.05;0.80;;;14.10;99.90;;;;;;6193234;23;20009;-85
2022/09/11 05:51:12;;;;;;;4.03;1.50;;;14.10;99.90;;;;;;6198347;23;20021;-85
2022/09/11 05:53:39;;;;;;;2.60;0.77;;;14.20;99.90;;;;;;6197193;23;20072;-86
2022/09/11 05:56:17;;;;;;;2.45;0.60;;;14.20;99.90;;;;;;6200626;23;20009;-85
2022/09/11 05:58:44;;;;;;;3.40;0.80;;;14.30;99.90;;;;;;6198067;23;20001;-86
2022/09/11 06:01:12;;;;;;;6.95;0.93;;;14.40;99.90;;;;;;6224615;23;19997;-86
2022/09/11 06:03:38;;;;;;;2.28;0.90;;;14.40;99.90;;;;;;6223782;23;20026;-86
2022/09/11 06:06:06;;;;;;;0.90;0.80;;;14.50;99.90;;;;;;6232247;22;19989;-86
2022/09/11 06:08:36;;;;;;;1.02;0.60;;;14.50;99.90;;;;;;6215453;22;20015;-86
2022/09/11 06:11:05;;;;;;;1.85;0.82;;;14.60;99.90;;;;;;6215535;22;19992;-86
2022/09/11 06:13:34;;;;;;;1.15;0.80;;;14.60;99.90;;;;;;6215507;22;19997;-85
2022/09/11 06:16:01;;;;;;;3.45;1.10;;;14.60;99.90;;;;;;6198250;23;20355;-84
2022/09/11 06:18:28;;;;;;;1.52;0.93;;;14.70;99.90;;;;;;6196978;23;20015;-86
2022/09/11 06:20:58;;;;;;;3.85;1.13;;;14.80;99.90;;;;;;6199079;23;19997;-86
2022/09/11 06:23:24;;;;;;;1.85;1.02;;;14.80;99.90;;;;;;6200468;23;20051;-86
2022/09/11 06:25:53;;;;;;;1.30;0.63;;;14.90;99.90;;;;;;6196478;23;20424;-86
2022/09/11 06:28:22;;;;;;;1.13;0.70;;;15.00;99.90;;;;;;6225345;23;20004;-86
2022/09/11 06:30:51;;;;;;;1.52;0.63;;;15.00;99.90;;;;;;6225498;23;20000;-85
2022/09/11 06:33:23;;;;;;;2.78;0.85;;;15.10;99.90;;;;;;6197676;23;20069;-86
2022/09/11 06:36:00;;;;;;;3.28;0.80;;;15.10;99.90;;;;;;6198044;23;20008;-86
2022/09/11 06:38:30;;;;;;;2.25;0.70;;;15.20;99.90;;;;;;6196887;23;20004;-86
2022/09/11 06:41:04;;;;;;;1.58;0.80;;;15.30;99.90;;;;;;6199462;23;19996;-86
2022/09/11 06:46:38;;;;;;;2.92;0.90;;;15.40;99.90;;;;;;6212051;23;20031;-86
2022/09/11 06:49:16;;;;;;;2.42;0.80;;;15.50;99.90;;;;;;6197401;23;20004;-85
2022/09/11 06:51:53;;;;;;;1.88;1.02;;;15.40;99.90;;;;;;6190502;23;20056;-86
2022/09/11 06:54:30;;;;;;;1.60;0.95;;;15.40;99.90;;;;;;6191763;23;20441;-87
2022/09/11 06:57:18;;;;;;;4.22;1.10;;;15.40;99.90;;;;;;6194204;23;20016;-86
2022/09/11 06:59:51;;;;;;;1.95;1.00;;;15.50;99.90;;;;;;6195858;23;20012;-85
2022/09/11 07:02:31;;;;;;;2.35;1.05;;;15.60;99.90;;;;;;6193179;23;20083;-87
2022/09/11 07:05:00;;;;;;;3.30;1.23;;;15.60;99.90;;;;;;6193684;23;20023;-85
2022/09/11 07:07:26;;;;;;;5.05;1.88;;;15.70;99.90;;;;;;6194806;23;20015;-84
2022/09/11 07:09:51;;;;;;;4.32;1.10;;;15.70;99.90;;;;;;6195360;23;20346;-85
2022/09/11 07:12:19;;;;;;;2.97;1.20;;;15.70;99.90;;;;;;6196001;23;20036;-85
2022/09/11 07:14:45;;;;;;;2.70;1.40;;;15.70;99.90;;;;;;6194404;23;20004;-85
2022/09/11 07:17:11;;;;;;;2.30;1.20;;;15.70;99.90;;;;;;6228018;22;20463;-84
2022/09/11 07:19:36;;;;;;;3.15;1.10;;;15.70;99.90;;;;;;6222878;23;20079;-84
2022/09/11 07:22:02;;;;;;;4.30;0.70;;;15.80;99.90;;;;;;6193119;23;20036;-85
2022/09/11 07:24:36;;;;;;;3.97;1.10;;;15.80;99.90;;;;;;6192466;23;20000;-85
2022/09/11 07:27:01;;;;;;;2.40;1.02;;;15.80;99.90;;;;;;6194799;23;20005;-84
2022/09/11 07:29:28;;;;;;;2.88;1.05;;;15.80;99.90;;;;;;6221705;23;20115;-84
2022/09/11 07:31:56;;;;;;;2.25;1.10;;;16.00;99.90;;;;;;6221337;23;20087;-83
2022/09/11 07:34:21;;;;;;;2.80;1.17;;;16.30;99.90;;;;;;6222451;23;20031;-82
2022/09/11 07:36:50;;;;;;;2.33;1.33;;;16.40;99.90;;;;;;6230200;23;20002;-85
2022/09/11 07:39:16;;;;;;;2.40;1.35;;;16.30;99.90;;;;;;6218786;23;19997;-86
2022/09/11 07:41:42;;;;;;;3.40;1.25;;;16.20;99.90;;;;;;6221544;23;20055;-84
2022/09/11 07:44:08;;;;;;;4.18;1.42;;;16.10;99.90;;;;;;6221226;23;19997;-84
2022/09/11 07:46:34;;;;;;;1.70;1.25;;;16.10;99.90;;;;;;6180072;22;20064;-81
2022/09/11 07:49:01;;;;;;;1.58;0.80;;;16.10;99.90;;;;;;6169338;23;19998;-79
2022/09/11 07:51:27;;;;;;;5.18;1.52;;;16.10;99.90;;;;;;6167939;23;20305;-81
2022/09/11 07:53:56;;;;;;;6.15;1.42;;;16.30;99.90;;;;;;6164931;23;20036;-82
2022/09/11 07:56:24;;;;;;;2.72;1.10;;;16.60;99.90;;;;;;6164803;23;20001;-82
2022/09/11 07:58:51;;;;;;;3.50;1.33;;;16.70;99.90;;;;;;6166960;23;20100;-84
2022/09/11 08:01:19;;;;;;;3.15;1.42;;;16.90;99.40;;;;;;6164283;23;20060;-82
2022/09/11 08:03:45;;;;;;;2.30;1.13;;;17.00;99.70;;;;;;6188625;23;20065;-83
2022/09/11 08:06:18;;;;;;;4.07;1.63;;;17.10;99.20;;;;;;6188367;23;20336;-82
2022/09/11 08:08:44;;;;;;;3.03;1.50;;;17.10;99.30;;;;;;6164279;23;20005;-84
2022/09/11 08:11:13;;;;;;;2.55;1.17;;;17.20;99.60;;;;;;6164753;23;20001;-82
2022/09/11 08:13:40;;;;;;;2.88;1.50;;;17.50;99.10;;;;;;6185743;23;20016;-81
2022/09/11 08:16:06;;;;;;;4.53;1.73;;;17.60;97.90;;;;;;6161875;23;20017;-83
2022/09/11 08:18:34;;;;;;;2.35;1.33;;;17.70;97.50;;;;;;6184534;23;20017;-82
2022/09/11 08:21:10;;;;;;;2.05;1.17;;;17.70;96.70;;;;;;6159202;23;20432;-80
2022/09/11 08:23:39;;;;;;;1.92;1.27;;;17.70;97.00;;;;;;6167687;23;20005;-83
2022/09/11 08:26:07;;;;;;;3.40;1.67;;;17.50;97.20;;;;;;6165852;23;20081;-81
2022/09/11 08:28:37;;;;;;;2.08;1.30;;;17.40;97.30;;;;;;6165017;23;20013;-84
2022/09/11 08:31:04;;;;;;;4.57;1.88;;;17.30;97.80;;;;;;6165245;23;20017;-83
2022/09/11 08:33:30;;;;;;;3.92;2.08;;;17.30;97.10;;;;;;6188195;23;20006;-81
2022/09/11 08:36:01;;;;;;;2.13;1.60;;;17.20;97.20;;;;;;6165356;23;20009;-83
2022/09/11 08:38:27;;;;;;;2.28;1.70;;;17.00;97.20;;;;;;6165828;23;20005;-81
2022/09/11 08:40:53;;;;;;;2.40;2.08;;;16.90;97.80;;;;;;6165234;23;20009;-83
2022/09/11 08:43:31;;;;;;;3.13;2.42;;;16.80;98.70;;;;;;6190102;23;20029;-80
2022/09/11 08:46:04;;;;;;;4.25;1.52;;;16.70;98.70;;;;;;6168761;23;20013;-82
2022/09/11 08:49:00;;;;;;;6.57;2.10;;;16.60;99.30;;;;;;6227874;23;20011;-82
2022/09/11 08:51:26;;;;;;;2.97;1.95;;;16.60;99.00;;;;;;6223436;23;20135;-83
2022/09/11 08:53:55;;;;;;;2.35;1.88;;;16.60;99.60;;;;;;6230193;23;20005;-83
2022/09/11 08:56:23;;;;;;;2.45;2.03;;;16.60;99.30;;;;;;6202742;23;20302;-83
2022/09/11 08:59:21;;;;;;;2.22;1.92;;;16.70;99.10;;;;;;6229834;23;19996;-83
2022/09/11 09:02:14;;;;;;;2.45;1.80;;;16.90;98.80;;;;;;6201143;23;20005;-82
2022/09/11 09:05:05;;;;;;;2.05;1.90;;;17.20;97.90;;;;;;6226821;23;20001;-80
2022/09/11 09:08:00;;;;;;;4.28;2.20;;;17.40;97.60;;;;;;6226448;23;19997;-84
2022/09/11 09:10:37;;;;;;;3.28;1.70;;;17.40;97.00;;;;;;6226231;23;20175;-79
2022/09/11 09:13:14;;;;;;;3.10;1.98;;;17.30;97.30;;;;;;6199904;23;20016;-84
2022/09/11 09:15:52;;;;;;;2.33;2.03;;;17.30;97.60;;;;;;6228381;23;20015;-82
2022/09/11 09:18:26;;;;;;;3.53;1.90;;;17.30;96.90;;;;;;6240322;23;20012;-78
2022/09/11 09:21:05;;;;;;;2.50;2.25;;;17.30;97.50;;;;;;6229671;23;20030;-80
2022/09/11 09:23:48;;;;;;;2.65;1.88;;;17.20;97.90;;;;;;6226891;23;20024;-82
2022/09/11 09:26:17;;;;;;;3.22;2.47;;;17.20;97.60;;;;;;6227356;23;20348;-82
2022/09/11 09:28:49;;;;;;;2.08;1.85;;;17.10;98.30;;;;;;6226146;23;20004;-83
2022/09/11 09:31:28;;;;;;;4.20;2.30;;;17.00;99.00;;;;;;6199501;23;20005;-83
2022/09/11 09:34:00;;;;;;;2.35;2.15;;;16.90;99.40;;;;;;6225816;23;20005;-80
2022/09/11 09:36:30;;;;;;;2.50;2.30;;;16.80;99.90;;;;;;6226644;22;20012;-83
2022/09/11 09:38:57;;;;;;;2.85;2.08;;;16.60;99.90;;;;;;6227203;23;20312;-85
2022/09/11 09:41:26;;;;;;;2.83;2.45;;;16.50;99.90;;;;;;6231110;23;20008;-84
2022/09/11 09:44:13;;;;;;;4.25;2.33;;;16.60;99.90;;;;;;6225595;23;20044;-83
2022/09/11 09:46:41;;;;;;;4.88;2.60;;;16.70;99.90;;;;;;6226625;23;20063;-83
2022/09/11 09:49:13;;;;;;;2.53;2.22;;;16.80;99.90;;;;;;6225948;23;20051;-83
2022/09/11 09:51:39;;;;;;;4.20;2.60;;;17.00;99.90;;;;;;6230118;23;20000;-82
2022/09/11 09:54:09;;;;;;;3.75;2.00;;;17.10;99.70;;;;;;6231957;23;20096;-81
2022/09/11 09:56:38;;;;;;;2.78;2.50;;;17.20;99.40;;;;;;6228523;23;20103;-83
2022/09/11 09:59:20;;;;;;;5.60;2.58;;;17.30;99.00;;;;;;6201631;22;20023;-83
2022/09/11 10:01:53;;;;;;;3.75;2.22;;;17.40;98.80;;;;;;6225996;23;20012;-81
2022/09/11 10:04:22;;;;;;;3.85;3.00;;;17.30;99.30;;;;;;6199923;23;20011;-80
2022/09/11 10:06:58;;;;;;;3.78;2.25;;;17.20;99.30;;;;;;6234539;23;19997;-79
2022/09/11 10:09:28;;;;;;;4.00;2.88;;;16.90;99.90;;;;;;6234503;23;20063;-82
2022/09/11 10:12:05;;;;;;;5.60;2.70;;;16.70;99.90;;;;;;6227589;23;20012;-81
2022/09/11 10:14:49;;;;;;;2.97;2.70;;;16.40;99.90;;;;;;6226096;23;20015;-82
2022/09/11 10:17:21;;;;;;;4.75;3.58;;;16.20;99.90;;;;;;6228234;23;20012;-83
2022/09/11 10:19:46;;;;;;;4.47;3.53;;;16.00;99.90;;;;;;6198947;23;20005;-83
2022/09/11 10:22:24;;;;;;;4.57;3.88;;;15.90;99.90;;;;;;6225568;23;20005;-82
2022/09/11 10:25:01;;;;;;;3.67;3.38;;;15.80;99.90;;;;;;6199432;23;20000;-81
2022/09/11 10:27:30;;;;;;;7.80;3.30;;;15.70;99.90;;;;;;6197580;23;20399;-83
2022/09/11 10:29:57;;;;;;;6.13;3.78;;;15.70;99.90;;;;;;6201098;23;20072;-80
2022/09/11 10:32:24;;;;;;;4.97;4.15;;;15.70;99.90;;;;;;6224284;23;20004;-83
2022/09/11 10:34:51;;;;;;;4.13;3.70;;;15.60;99.90;;;;;;6225003;23;20092;-80
2022/09/11 10:37:26;;;;;;;4.38;3.42;;;15.60;99.90;;;;;;6224583;23;20218;-83
2022/09/11 10:40:05;;;;;;;4.60;3.55;;;15.70;99.90;;;;;;6224610;23;20028;-80
2022/09/11 10:42:33;;;;;;;5.57;3.47;;;16.00;99.90;;;;;;6198259;23;20061;-82
2022/09/11 10:45:15;;;;;;;4.88;3.72;;;16.30;99.90;;;;;;6224466;23;20005;-84
2022/09/11 10:47:42;;;;;;;6.25;3.60;;;16.70;99.90;;;;;;6227136;23;20023;-83
2022/09/11 10:50:17;;;;;;;3.35;2.97;;;17.10;99.90;;;;;;6225257;23;20012;-83
2022/09/11 10:52:58;;;;;;;4.07;2.63;;;17.40;99.90;;;;;;6224797;23;20096;-82
2022/09/11 10:55:37;;;;;;;4.28;2.92;;;17.50;99.90;;;;;;6226005;23;20020;-83
2022/09/11 10:58:16;;;;;;;3.95;2.97;;;17.40;99.90;;;;;;6197312;23;20039;-83
2022/09/11 11:00:43;;;;;;;3.20;2.42;;;17.40;99.90;;;;;;6224516;23;20016;-84
2022/09/11 11:03:11;;;;;;;4.05;2.95;;;17.50;99.90;;;;;;6226711;23;20424;-82
2022/09/11 11:06:05;;;;;;;3.22;2.33;;;17.90;99.90;;;;;;6199879;23;20501;-83
2022/09/11 11:08:55;;;;;;;2.13;1.92;;;18.40;99.00;;;;;;6235457;23;20064;-81
2022/09/11 11:11:31;;;;;;;2.78;2.20;;;18.80;98.30;;;;;;6212999;23;20003;-81
2022/09/11 11:14:20;;;;;;;2.83;2.50;;;19.30;96.20;;;;;;6214890;22;20004;-79
2022/09/11 11:16:56;;;;;;;2.45;2.17;;;19.40;94.20;;;;;;6241053;22;20020;-78
2022/09/11 11:19:47;;;;;;;1.98;1.77;;;19.40;94.60;;;;;;6230646;23;20032;-83
2022/09/11 11:22:40;;;;;;;3.38;2.70;;;19.40;94.50;;;;;;6225417;23;20012;-82
2022/09/11 11:25:21;;;;;;;3.92;2.40;;;19.00;93.60;;;;;;6224741;23;20004;-82
2022/09/11 11:28:06;;;;;;;3.28;2.83;;;18.50;94.70;;;;;;6226742;23;20000;-81
2022/09/11 11:30:56;;;;;;;4.00;2.60;;;18.10;96.10;;;;;;6225275;23;20081;-82
2022/09/11 11:33:46;;;;;;;2.95;2.35;;;17.70;97.20;;;;;;6225826;23;19996;-81
2022/09/11 11:36:35;;;;;;;5.20;2.50;;;17.50;98.10;;;;;;6226520;23;20004;-82
2022/09/11 11:39:32;;;;;;;5.50;2.88;;;17.40;99.10;;;;;;6227813;23;19996;-82
2022/09/11 11:42:03;;;;;;;2.97;2.75;;;17.20;99.90;;;;;;6180532;23;20007;-80
2022/09/11 11:44:47;;;;;;;4.03;2.65;;;17.00;99.90;;;;;;6213691;22;20010;-78
2022/09/11 11:47:15;;;;;;;4.70;3.03;;;16.90;99.90;;;;;;6215216;22;20000;-80
2022/09/11 11:49:52;;;;;;;4.90;3.10;;;16.80;99.90;;;;;;6241016;22;20004;-79
2022/09/11 11:52:33;;;;;;;2.88;2.47;;;16.80;99.90;;;;;;6239603;22;20001;-84
2022/09/11 11:55:19;;;;;;;3.20;2.90;;;16.80;99.90;;;;;;6227605;23;20084;-83
2022/09/11 11:58:04;;;;;;;4.13;2.80;;;16.90;99.90;;;;;;6199883;23;20012;-83
2022/09/11 12:00:38;;;;;;;3.45;3.15;;;17.00;99.90;;;;;;6200060;23;20419;-83
2022/09/11 12:03:09;;;;;;;2.88;2.63;;;17.30;99.90;;;;;;6226038;23;20008;-83
2022/09/11 12:05:36;;;;;;;2.28;2.08;;;17.80;99.90;;;;;;6228258;23;20003;-84
2022/09/11 12:08:03;;;;;;;2.42;1.98;;;18.40;99.90;;;;;;6202796;23;20001;-80
2022/09/11 12:10:35;;;;;;;2.03;1.92;;;19.10;99.80;;;;;;6204668;23;20072;-83
2022/09/11 12:13:14;;;;;;;2.17;1.92;;;19.40;97.00;;;;;;6197506;23;20095;-83
2022/09/11 12:16:01;;;;;;;1.95;1.75;;;19.30;95.50;;;;;;6224954;23;20020;-82
2022/09/11 12:18:27;;;;;;;1.90;1.80;;;19.10;96.40;;;;;;6200002;23;20016;-83
2022/09/11 12:21:22;;;;;;;3.60;2.25;;;18.80;95.40;;;;;;6232430;23;20004;-82
2022/09/11 12:23:48;;;;;;;3.38;1.52;;;18.70;96.10;;;;;;6227382;23;20005;-82
2022/09/11 12:26:24;;;;;;;3.20;1.70;;;18.60;96.00;;;;;;6203016;22;20009;-83
2022/09/11 12:29:15;;;;;;;2.03;1.65;;;18.60;96.00;;;;;;6228212;23;20000;-83
2022/09/11 12:31:49;;;;;;;2.35;1.80;;;18.80;95.50;;;;;;6226603;23;20011;-83
2022/09/11 12:34:22;;;;;;;2.70;1.60;;;19.40;94.80;;;;;;6226608;23;20004;-81
2022/09/11 12:36:57;;;;;;;2.00;1.80;;;19.80;93.50;;;;;;6225868;23;20070;-83
2022/09/11 12:39:31;;;;;;;1.67;1.58;;;19.90;92.60;;;;;;6225320;23;20515;-83
2022/09/11 12:42:22;;;;;;;2.92;1.70;;;19.70;92.20;;;;;;6226714;23;20000;-81
2022/09/11 12:44:47;;;;;;;1.90;1.60;;;19.30;92.20;;;;;;6226907;23;20044;-81
2022/09/11 12:47:28;;;;;;;2.67;1.73;;;18.90;93.50;;;;;;6227435;22;20444;-80
2022/09/11 12:50:20;;;;;;;1.70;1.60;;;18.70;93.90;;;;;;6226534;23;20011;-82
2022/09/11 12:52:47;;;;;;;2.25;1.25;;;18.40;94.60;;;;;;6225946;23;20076;-82
2022/09/11 12:55:38;;;;;;;2.00;1.70;;;18.30;95.00;;;;;;6225730;23;20328;-82
2022/09/11 12:58:27;;;;;;;1.70;1.60;;;18.30;95.30;;;;;;6226499;23;20031;-82
2022/09/11 13:01:14;;;;;;;1.65;1.40;;;18.20;95.90;;;;;;6199638;23;20004;-81
2022/09/11 13:04:02;;;;;;;2.17;1.98;;;18.30;95.70;;;;;;6226888;23;20016;-82
2022/09/11 13:06:59;;;;;;;3.10;2.25;;;18.40;95.20;;;;;;6232305;23;20005;-81
2022/09/11 13:09:38;;;;;;;2.38;1.52;;;18.40;94.90;;;;;;6228461;23;20346;-81
2022/09/11 13:12:22;;;;;;;2.17;1.98;;;18.40;95.20;;;;;;6228983;23;20032;-83
2022/09/11 13:14:55;;;;;;;1.92;1.60;;;18.60;95.10;;;;;;6199117;23;20028;-83
2022/09/11 13:17:24;;;;;;;1.52;1.42;;;18.40;96.20;;;;;;6228929;23;20007;-82
2022/09/11 13:19:51;;;;;;;2.25;1.50;;;18.10;97.30;;;;;;6229367;23;20019;-82
2022/09/11 13:22:33;;;;;;;2.20;1.55;;;17.70;99.00;;;;;;6224183;23;19997;-82
2022/09/11 13:25:13;;;;;;;1.88;1.65;;;17.50;99.90;;;;;;6222233;23;20001;-83
2022/09/11 13:27:48;;;;;;;2.13;1.77;;;17.30;99.90;;;;;;6198982;23;19992;-82
2022/09/11 13:30:18;;;;;;;1.60;1.20;;;17.20;99.90;;;;;;6227022;23;20098;-82
2022/09/11 13:32:47;;;;;;;1.42;1.23;;;17.20;99.90;;;;;;6225652;23;20012;-83
2022/09/11 13:35:19;;;;;;;2.58;1.75;;;17.20;99.90;;;;;;6226226;23;20005;-84
2022/09/11 13:38:01;;;;;;;2.00;1.90;;;17.20;99.90;;;;;;6226302;23;20015;-82
2022/09/11 13:40:30;;;;;;;;;;;17.10;99.90;;;;;;6204938;23;20001;-83
2022/09/11 13:42:56;;;;;;;1.60;1.50;;;17.00;99.90;;;;;;6225076;23;19975;-83
2022/09/11 13:45:23;;;;;;;2.83;1.75;;;17.10;99.90;;;;;;6227612;23;20057;-83
2022/09/11 13:55:17;;;;;;;1.20;1.20;;;17.40;99.90;;;;;;6140224;23;20017;-82
2022/09/11 13:58:20;;;;;;;;;;;17.40;99.90;;;;;;6113269;23;20058;-81
2022/09/11 14:01:34;;;;;;;2.55;1.90;;;17.40;99.90;;;;;;6086518;23;19901;-82
2022/09/11 14:05:09;;;;;;;1.65;1.52;;;17.50;99.90;;;;;;6082395;23;20014;-82
2022/09/11 14:08:45;;;;;;;3.78;2.00;;;17.50;99.90;;;;;;6036885;23;20064;-82
2022/09/11 14:11:52;;;;;;;;;;;17.60;99.90;;;;;;6099090;23;20006;-82
2022/09/11 14:15:08;;;;;;;1.63;1.52;;;17.80;99.90;;;;;;6056542;23;19910;-81
2022/09/11 14:21:46;;;;;;;1.25;1.25;;;18.40;99.90;;;;;;6025115;23;20021;-81
2022/09/11 14:25:19;;;;;;;1.13;1.10;;;18.60;99.90;;;;;;5897698;24;20006;-82
2022/09/11 14:31:55;;;;;;;2.22;2.03;;;19.70;98.00;;;;;;5834914;24;20045;-82
2022/09/11 14:45:40;;;;;;;1.98;1.33;;;23.00;81.20;;;;;;5846035;24;20358;-81
2022/09/11 14:52:26;;;;;;;4.10;1.52;;;22.70;77.80;;;;;;5806351;24;20045;-83
2022/09/11 16:29:54;;;;;;;2.75;2.33;;;18.40;92.60;;;;;;6189279;23;20112;-83
2022/09/11 16:32:26;;;;;;;3.20;1.83;;;18.30;93.20;;;;;;6188897;23;20122;-83
2022/09/11 16:38:31;;;;;;;2.13;1.70;;;18.20;93.60;;;;;;6188460;23;19951;-83
2022/09/11 16:41:22;;;;;;;2.47;2.25;;;18.20;93.90;;;;;;6188171;23;20016;-83
2022/09/11 16:44:33;;;;;;;3.65;2.58;;;18.10;94.00;;;;;;6159596;23;20014;-84
2022/09/11 16:54:46;;;;;;;2.65;2.08;;;17.80;94.60;;;;;;6069858;23;20041;-83
2022/09/11 16:57:21;;;;;;;2.00;1.80;;;17.70;94.90;;;;;;6073560;23;20006;-83
2022/09/11 17:03:24;;;;;;;2.60;2.40;;;17.40;95.80;;;;;;6191460;23;20075;-82
2022/09/11 17:06:13;;;;;;;3.65;2.53;;;17.30;96.30;;;;;;6165932;23;20344;-83
2022/09/11 17:09:22;;;;;;;2.30;2.10;;;17.20;96.60;;;;;;6173677;23;20068;-84
2022/09/11 17:13:14;;;;;;;3.85;2.05;;;17.10;97.10;;;;;;6100657;23;20006;-83
2022/09/11 17:16:24;;;;;;;2.53;2.33;;;17.00;97.40;;;;;;6058279;23;20417;-83
2022/09/11 17:22:19;;;;;;;2.35;2.15;;;16.90;98.20;;;;;;6091108;23;20038;-83
2022/09/11 17:25:37;;;;;;;3.05;2.08;;;16.80;98.50;;;;;;6138811;23;20009;-84
2022/09/11 17:28:46;;;;;;;2.15;1.95;;;16.70;98.90;;;;;;6190138;23;20071;-83
2022/09/11 17:31:54;;;;;;;2.05;1.92;;;16.60;99.40;;;;;;6069402;23;20233;-83
2022/09/11 17:34:20;;;;;;;2.30;2.10;;;16.60;99.90;;;;;;5956560;24;20015;-83
2022/09/11 17:37:06;;;;;;;2.50;2.30;;;16.40;99.90;;;;;;6033549;23;20015;-84
2022/09/11 17:39:41;;;;;;;2.08;1.98;;;16.40;99.90;;;;;;6143640;23;20088;-83
2022/09/11 17:42:45;;;;;;;2.15;2.05;;;16.40;99.90;;;;;;6164788;23;20016;-83
2022/09/11 17:45:18;;;;;;;2.30;2.10;;;16.30;99.90;;;;;;6143332;23;20005;-83
2022/09/11 17:47:51;;;;;;;2.60;2.33;;;16.20;99.90;;;;;;6195520;23;20500;-82
2022/09/11 17:50:21;;;;;;;2.97;2.67;;;16.20;99.90;;;;;;6195090;23;20013;-82
2022/09/11 17:52:48;;;;;;;2.50;2.30;;;16.20;99.90;;;;;;6167888;23;20015;-83
2022/09/11 17:55:14;;;;;;;2.47;2.33;;;16.20;99.90;;;;;;6195292;23;20008;-83
2022/09/11 17:57:43;;;;;;;2.38;2.15;;;16.10;99.90;;;;;;6194701;23;20008;-85
2022/09/11 18:00:10;;;;;;;2.28;2.08;;;16.10;99.90;;;;;;6196491;23;20083;-83
2022/09/11 18:02:36;;;;;;;2.00;1.90;;;16.10;99.90;;;;;;6170037;23;20027;-83
2022/09/11 18:05:02;;;;;;;2.30;2.08;;;16.10;99.90;;;;;;6169912;23;20425;-84
2022/09/11 18:07:28;;;;;;;2.72;2.35;;;16.10;99.90;;;;;;6169688;23;20005;-84
2022/09/11 18:09:53;;;;;;;2.15;2.05;;;16.00;99.90;;;;;;6204209;23;20028;-83